sensor_id;sensor_type;location;lat;lon;timestamp;temperature;humidity
58638;DHT22;54976;51.510;7.522;2023-06-24T00:01:25;17.80;99.90
58638;DHT22;54976;51.510;7.522;2023-06-24T00:04:26;17.70;99.90
58638;DHT22;54976;51.510;7.522;2023-06-24T00:07:26;17.70;99.90
58638;DHT22;54976;51.510;7.522;2023-06-24T00:10:27;17.70;99.90
58638;DHT22;54976;51.510;7.522;2023-06-24T00:13:29;17.60;99.90
58638;DHT22;54976;51.510;7.522;2023-06-24T00:16:30;17.60;99.90
58638;DHT22;54976;51.510;7.522;2023-06-24T00:19:30;17.50;99.90
58638;DHT22;54976;51.510;7.522;2023-06-24T00:22:31;17.50;99.90
58638;DHT22;54976;51.510;7.522;2023-06-24T00:25:32;17.50;99.90
58638;DHT22;54976;51.510;7.522;2023-06-24T00:28:33;17.50;99.90
58638;DHT22;54976;51.510;7.522;2023-06-24T00:31:33;17.40;99.90
58638;DHT22;54976;51.510;7.522;2023-06-24T00:34:34;17.40;99.90
58638;DHT22;54976;51.510;7.522;2023-06-24T00:37:35;17.40;99.90
58638;DHT22;54976;51.510;7.522;2023-06-24T00:40:36;17.40;99.90
58638;DHT22;54976;51.510;7.522;2023-06-24T00:43:37;17.40;99.90
58638;DHT22;54976;51.510;7.522;2023-06-24T00:46:39;17.40;99.90
58638;DHT22;54976;51.510;7.522;2023-06-24T00:49:40;17.50;99.90
58638;DHT22;54976;51.510;7.522;2023-06-24T00:52:45;17.50;99.90
58638;DHT22;54976;51.510;7.522;2023-06-24T00:55:46;17.50;99.90
58638;DHT22;54976;51.510;7.522;2023-06-24T00:58:47;17.50;99.90
58638;DHT22;54976;51.510;7.522;2023-06-24T01:01:48;17.50;99.90
58638;DHT22;54976;51.510;7.522;2023-06-24T01:04:54;17.40;99.90
58638;DHT22;54976;51.510;7.522;2023-06-24T01:07:55;17.30;99.90
58638;DHT22;54976;51.510;7.522;2023-06-24T01:10:56;17.40;99.90
58638;DHT22;54976;51.510;7.522;2023-06-24T01:13:57;17.40;99.90
58638;DHT22;54976;51.510;7.522;2023-06-24T01:17:19;17.20;99.90
58638;DHT22;54976;51.510;7.522;2023-06-24T01:20:25;17.20;99.90
58638;DHT22;54976;51.510;7.522;2023-06-24T01:23:50;17.20;99.90
58638;DHT22;54976;51.510;7.522;2023-06-24T01:33:43;17.10;99.90
58638;DHT22;54976;51.510;7.522;2023-06-24T01:37:14;17.10;99.90
58638;DHT22;54976;51.510;7.522;2023-06-24T01:40:47;17.10;99.90
58638;DHT22;54976;51.510;7.522;2023-06-24T01:43:50;17.10;99.90
58638;DHT22;54976;51.510;7.522;2023-06-24T01:46:55;17.10;99.90
58638;DHT22;54976;51.510;7.522;2023-06-24T01:49:59;17.00;99.90
58638;DHT22;54976;51.510;7.522;2023-06-24T01:53:05;17.00;99.90
58638;DHT22;54976;51.510;7.522;2023-06-24T01:56:07;16.90;99.90
58638;DHT22;54976;51.510;7.522;2023-06-24T01:59:10;16.90;99.90
58638;DHT22;54976;51.510;7.522;2023-06-24T02:02:12;16.90;99.90
58638;DHT22;54976;51.510;7.522;2023-06-24T02:05:14;17.00;99.90
58638;DHT22;54976;51.510;7.522;2023-06-24T02:08:17;16.90;99.90
58638;DHT22;54976;51.510;7.522;2023-06-24T02:11:18;16.80;99.90
58638;DHT22;54976;51.510;7.522;2023-06-24T02:14:19;16.90;99.90
58638;DHT22;54976;51.510;7.522;2023-06-24T02:17:22;16.80;99.90
58638;DHT22;54976;51.510;7.522;2023-06-24T02:20:25;16.80;99.90
58638;DHT22;54976;51.510;7.522;2023-06-24T02:23:28;16.80;99.90
58638;DHT22;54976;51.510;7.522;2023-06-24T02:26:29;16.90;99.90
58638;DHT22;54976;51.510;7.522;2023-06-24T02:29:30;16.80;99.90
58638;DHT22;54976;51.510;7.522;2023-06-24T02:32:32;16.80;99.90
58638;DHT22;54976;51.510;7.522;2023-06-24T02:35:33;16.80;99.90
58638;DHT22;54976;51.510;7.522;2023-06-24T02:38:34;16.80;99.90
58638;DHT22;54976;51.510;7.522;2023-06-24T02:41:34;16.80;99.90
58638;DHT22;54976;51.510;7.522;2023-06-24T02:44:36;16.70;99.90
58638;DHT22;54976;51.510;7.522;2023-06-24T02:47:37;16.80;99.90
58638;DHT22;54976;51.510;7.522;2023-06-24T02:50:39;16.70;99.90
58638;DHT22;54976;51.510;7.522;2023-06-24T02:53:41;16.70;99.90
58638;DHT22;54976;51.510;7.522;2023-06-24T02:56:42;16.70;99.90
58638;DHT22;54976;51.510;7.522;2023-06-24T02:59:44;16.70;99.90
58638;DHT22;54976;51.510;7.522;2023-06-24T03:02:45;16.70;99.90
58638;DHT22;54976;51.510;7.522;2023-06-24T03:05:47;16.70;99.90
58638;DHT22;54976;51.510;7.522;2023-06-24T03:08:50;16.60;99.90
58638;DHT22;54976;51.510;7.522;2023-06-24T03:11:51;16.60;99.90
58638;DHT22;54976;51.510;7.522;2023-06-24T03:14:52;16.60;99.90
58638;DHT22;54976;51.510;7.522;2023-06-24T03:17:52;16.70;99.90
58638;DHT22;54976;51.510;7.522;2023-06-24T03:20:53;16.60;99.90
58638;DHT22;54976;51.510;7.522;2023-06-24T03:23:54;16.60;99.90
58638;DHT22;54976;51.510;7.522;2023-06-24T03:26:55;16.70;99.90
58638;DHT22;54976;51.510;7.522;2023-06-24T03:29:57;16.60;99.90
58638;DHT22;54976;51.510;7.522;2023-06-24T03:32:58;16.50;99.90
58638;DHT22;54976;51.510;7.522;2023-06-24T03:35:58;16.50;99.90
58638;DHT22;54976;51.510;7.522;2023-06-24T03:38:59;16.50;99.90
58638;DHT22;54976;51.510;7.522;2023-06-24T03:41:59;16.50;99.90
58638;DHT22;54976;51.510;7.522;2023-06-24T03:45:01;16.50;99.90
58638;DHT22;54976;51.510;7.522;2023-06-24T03:48:02;16.60;99.90
58638;DHT22;54976;51.510;7.522;2023-06-24T03:51:02;16.60;99.90
58638;DHT22;54976;51.510;7.522;2023-06-24T03:54:03;16.60;99.90
58638;DHT22;54976;51.510;7.522;2023-06-24T03:57:04;16.60;99.90
58638;DHT22;54976;51.510;7.522;2023-06-24T04:00:05;16.70;99.90
58638;DHT22;54976;51.510;7.522;2023-06-24T04:03:16;16.70;99.90
58638;DHT22;54976;51.510;7.522;2023-06-24T04:06:18;16.80;99.90
58638;DHT22;54976;51.510;7.522;2023-06-24T04:09:19;16.80;99.90
58638;DHT22;54976;51.510;7.522;2023-06-24T04:12:19;16.90;99.90
58638;DHT22;54976;51.510;7.522;2023-06-24T04:15:20;17.00;99.90
58638;DHT22;54976;51.510;7.522;2023-06-24T04:18:21;17.20;99.90
58638;DHT22;54976;51.510;7.522;2023-06-24T04:21:21;17.30;99.90
58638;DHT22;54976;51.510;7.522;2023-06-24T04:24:22;17.30;99.90
58638;DHT22;54976;51.510;7.522;2023-06-24T04:27:22;17.50;99.90
58638;DHT22;54976;51.510;7.522;2023-06-24T04:30:23;17.60;99.90
58638;DHT22;54976;51.510;7.522;2023-06-24T04:33:23;17.70;99.90
58638;DHT22;54976;51.510;7.522;2023-06-24T04:36:24;17.70;99.90
58638;DHT22;54976;51.510;7.522;2023-06-24T04:39:25;17.80;99.80
58638;DHT22;54976;51.510;7.522;2023-06-24T04:42:25;17.80;99.70
58638;DHT22;54976;51.510;7.522;2023-06-24T04:45:26;17.90;99.50
58638;DHT22;54976;51.510;7.522;2023-06-24T04:48:27;18.00;99.20
58638;DHT22;54976;51.510;7.522;2023-06-24T04:51:28;18.00;99.00
58638;DHT22;54976;51.510;7.522;2023-06-24T04:54:29;18.00;98.90
58638;DHT22;54976;51.510;7.522;2023-06-24T04:57:30;18.10;99.30
58638;DHT22;54976;51.510;7.522;2023-06-24T05:00:31;18.20;99.00
58638;DHT22;54976;51.510;7.522;2023-06-24T05:03:32;18.30;98.70
58638;DHT22;54976;51.510;7.522;2023-06-24T05:06:32;18.50;98.70
58638;DHT22;54976;51.510;7.522;2023-06-24T05:09:33;18.60;98.50
58638;DHT22;54976;51.510;7.522;2023-06-24T05:12:34;18.80;98.50
58638;DHT22;54976;51.510;7.522;2023-06-24T05:15:34;18.90;98.50
58638;DHT22;54976;51.510;7.522;2023-06-24T05:18:35;19.00;98.60
58638;DHT22;54976;51.510;7.522;2023-06-24T05:21:36;19.10;97.60
58638;DHT22;54976;51.510;7.522;2023-06-24T05:24:36;19.30;97.40
58638;DHT22;54976;51.510;7.522;2023-06-24T05:27:38;19.50;97.00
58638;DHT22;54976;51.510;7.522;2023-06-24T05:30:38;19.60;96.80
58638;DHT22;54976;51.510;7.522;2023-06-24T05:33:39;19.70;96.20
58638;DHT22;54976;51.510;7.522;2023-06-24T05:36:39;19.90;96.20
58638;DHT22;54976;51.510;7.522;2023-06-24T05:39:40;19.90;95.00
58638;DHT22;54976;51.510;7.522;2023-06-24T05:42:41;20.00;94.80
58638;DHT22;54976;51.510;7.522;2023-06-24T05:45:41;19.90;95.60
58638;DHT22;54976;51.510;7.522;2023-06-24T05:48:42;20.00;95.20
58638;DHT22;54976;51.510;7.522;2023-06-24T05:51:43;20.00;95.30
58638;DHT22;54976;51.510;7.522;2023-06-24T05:54:43;20.00;95.80
58638;DHT22;54976;51.510;7.522;2023-06-24T05:57:44;20.30;95.00
58638;DHT22;54976;51.510;7.522;2023-06-24T06:00:44;20.50;94.00
58638;DHT22;54976;51.510;7.522;2023-06-24T06:03:45;20.60;93.60
58638;DHT22;54976;51.510;7.522;2023-06-24T06:06:45;20.80;93.30
58638;DHT22;54976;51.510;7.522;2023-06-24T06:09:46;21.10;93.10
58638;DHT22;54976;51.510;7.522;2023-06-24T06:12:47;21.30;92.80
58638;DHT22;54976;51.510;7.522;2023-06-24T06:15:47;21.60;93.20
58638;DHT22;54976;51.510;7.522;2023-06-24T06:18:48;21.80;91.70
58638;DHT22;54976;51.510;7.522;2023-06-24T06:21:49;21.80;91.40
58638;DHT22;54976;51.510;7.522;2023-06-24T06:24:50;21.90;91.30
58638;DHT22;54976;51.510;7.522;2023-06-24T06:27:51;22.10;91.70
58638;DHT22;54976;51.510;7.522;2023-06-24T06:30:51;22.20;91.50
58638;DHT22;54976;51.510;7.522;2023-06-24T06:33:52;22.60;90.70
58638;DHT22;54976;51.510;7.522;2023-06-24T06:36:52;22.80;88.30
58638;DHT22;54976;51.510;7.522;2023-06-24T06:39:53;22.80;87.80
58638;DHT22;54976;51.510;7.522;2023-06-24T06:42:54;22.80;87.30
58638;DHT22;54976;51.510;7.522;2023-06-24T06:45:55;22.80;85.90
58638;DHT22;54976;51.510;7.522;2023-06-24T06:48:56;22.90;85.40
58638;DHT22;54976;51.510;7.522;2023-06-24T06:51:57;23.10;86.50
58638;DHT22;54976;51.510;7.522;2023-06-24T06:54:58;23.30;84.60
58638;DHT22;54976;51.510;7.522;2023-06-24T06:57:58;23.40;83.00
58638;DHT22;54976;51.510;7.522;2023-06-24T07:00:59;23.60;82.10
58638;DHT22;54976;51.510;7.522;2023-06-24T07:04:01;23.70;80.50
58638;DHT22;54976;51.510;7.522;2023-06-24T07:07:02;23.60;83.60
58638;DHT22;54976;51.510;7.522;2023-06-24T07:10:03;23.60;84.20
58638;DHT22;54976;51.510;7.522;2023-06-24T07:13:03;23.50;84.00
58638;DHT22;54976;51.510;7.522;2023-06-24T07:16:04;23.50;79.10
58638;DHT22;54976;51.510;7.522;2023-06-24T07:19:05;23.70;79.70
58638;DHT22;54976;51.510;7.522;2023-06-24T07:22:05;23.80;80.70
58638;DHT22;54976;51.510;7.522;2023-06-24T07:25:06;24.10;80.80
58638;DHT22;54976;51.510;7.522;2023-06-24T07:28:07;24.30;80.60
58638;DHT22;54976;51.510;7.522;2023-06-24T07:31:07;24.80;77.90
58638;DHT22;54976;51.510;7.522;2023-06-24T07:34:08;25.10;73.20
58638;DHT22;54976;51.510;7.522;2023-06-24T07:37:09;25.20;71.50
58638;DHT22;54976;51.510;7.522;2023-06-24T07:40:09;25.30;72.20
58638;DHT22;54976;51.510;7.522;2023-06-24T07:43:10;25.30;74.30
58638;DHT22;54976;51.510;7.522;2023-06-24T07:46:11;25.20;74.40
58638;DHT22;54976;51.510;7.522;2023-06-24T07:49:11;25.10;69.90
58638;DHT22;54976;51.510;7.522;2023-06-24T07:52:12;24.90;70.40
58638;DHT22;54976;51.510;7.522;2023-06-24T07:55:13;24.80;70.90
58638;DHT22;54976;51.510;7.522;2023-06-24T07:58:13;24.90;71.10
58638;DHT22;54976;51.510;7.522;2023-06-24T08:01:14;25.20;72.80
58638;DHT22;54976;51.510;7.522;2023-06-24T08:04:15;26.40;71.50
58638;DHT22;54976;51.510;7.522;2023-06-24T08:07:16;27.50;67.90
58638;DHT22;54976;51.510;7.522;2023-06-24T08:10:17;28.20;58.50
58638;DHT22;54976;51.510;7.522;2023-06-24T08:13:18;28.60;57.40
58638;DHT22;54976;51.510;7.522;2023-06-24T08:16:18;28.90;56.10
58638;DHT22;54976;51.510;7.522;2023-06-24T08:19:20;29.00;54.20
58638;DHT22;54976;51.510;7.522;2023-06-24T08:22:21;29.50;54.90
58638;DHT22;54976;51.510;7.522;2023-06-24T08:25:21;29.90;50.70
58638;DHT22;54976;51.510;7.522;2023-06-24T08:28:22;29.90;51.20
58638;DHT22;54976;51.510;7.522;2023-06-24T08:31:23;29.60;50.10
58638;DHT22;54976;51.510;7.522;2023-06-24T08:34:25;29.30;51.00
58638;DHT22;54976;51.510;7.522;2023-06-24T08:37:25;28.90;51.40
58638;DHT22;54976;51.510;7.522;2023-06-24T08:40:27;28.80;51.40
58638;DHT22;54976;51.510;7.522;2023-06-24T08:43:28;29.10;52.00
58638;DHT22;54976;51.510;7.522;2023-06-24T08:46:29;29.50;50.40
58638;DHT22;54976;51.510;7.522;2023-06-24T08:49:32;29.50;50.80
58638;DHT22;54976;51.510;7.522;2023-06-24T08:52:36;29.40;50.60
58638;DHT22;54976;51.510;7.522;2023-06-24T08:55:40;29.50;51.20
58638;DHT22;54976;51.510;7.522;2023-06-24T08:58:43;30.00;51.50
58638;DHT22;54976;51.510;7.522;2023-06-24T09:01:43;30.60;49.00
58638;DHT22;54976;51.510;7.522;2023-06-24T09:04:44;30.70;48.10
58638;DHT22;54976;51.510;7.522;2023-06-24T09:07:44;30.70;47.40
58638;DHT22;54976;51.510;7.522;2023-06-24T09:10:55;30.70;47.70
58638;DHT22;54976;51.510;7.522;2023-06-24T09:13:59;30.70;47.90
58638;DHT22;54976;51.510;7.522;2023-06-24T09:17:01;31.10;48.50
58638;DHT22;54976;51.510;7.522;2023-06-24T09:20:06;31.60;48.20
58638;DHT22;54976;51.510;7.522;2023-06-24T09:23:07;31.20;47.00
58638;DHT22;54976;51.510;7.522;2023-06-24T09:26:11;30.30;47.80
58638;DHT22;54976;51.510;7.522;2023-06-24T09:29:14;29.90;48.80
58638;DHT22;54976;51.510;7.522;2023-06-24T09:32:15;29.90;48.00
58638;DHT22;54976;51.510;7.522;2023-06-24T09:35:25;30.10;50.10
58638;DHT22;54976;51.510;7.522;2023-06-24T09:38:36;30.30;49.20
58638;DHT22;54976;51.510;7.522;2023-06-24T09:41:41;30.70;50.30
58638;DHT22;54976;51.510;7.522;2023-06-24T09:44:42;31.10;46.40
58638;DHT22;54976;51.510;7.522;2023-06-24T09:47:43;31.40;46.40
58638;DHT22;54976;51.510;7.522;2023-06-24T09:50:44;31.60;46.70
58638;DHT22;54976;51.510;7.522;2023-06-24T09:53:45;31.90;44.90
58638;DHT22;54976;51.510;7.522;2023-06-24T09:56:48;32.00;45.20
58638;DHT22;54976;51.510;7.522;2023-06-24T09:59:50;32.10;44.40
58638;DHT22;54976;51.510;7.522;2023-06-24T10:02:53;31.40;45.20
58638;DHT22;54976;51.510;7.522;2023-06-24T10:05:54;31.20;44.90
58638;DHT22;54976;51.510;7.522;2023-06-24T10:08:56;31.20;45.10
58638;DHT22;54976;51.510;7.522;2023-06-24T10:11:57;31.40;43.80
58638;DHT22;54976;51.510;7.522;2023-06-24T10:14:59;31.20;45.40
58638;DHT22;54976;51.510;7.522;2023-06-24T10:18:03;30.90;44.60
58638;DHT22;54976;51.510;7.522;2023-06-24T10:21:49;30.70;45.90
58638;DHT22;54976;51.510;7.522;2023-06-24T10:24:51;30.30;45.60
58638;DHT22;54976;51.510;7.522;2023-06-24T10:27:55;30.10;46.30
58638;DHT22;54976;51.510;7.522;2023-06-24T10:30:56;29.60;47.50
58638;DHT22;54976;51.510;7.522;2023-06-24T10:33:58;29.40;47.80
58638;DHT22;54976;51.510;7.522;2023-06-24T10:40:12;29.10;47.60
58638;DHT22;54976;51.510;7.522;2023-06-24T10:43:25;28.90;48.30
58638;DHT22;54976;51.510;7.522;2023-06-24T10:46:26;28.80;48.00
58638;DHT22;54976;51.510;7.522;2023-06-24T10:49:27;28.50;49.20
58638;DHT22;54976;51.510;7.522;2023-06-24T10:52:28;28.30;47.60
58638;DHT22;54976;51.510;7.522;2023-06-24T10:55:29;28.30;49.60
58638;DHT22;54976;51.510;7.522;2023-06-24T10:58:30;28.20;50.20
58638;DHT22;54976;51.510;7.522;2023-06-24T11:01:31;28.00;49.60
58638;DHT22;54976;51.510;7.522;2023-06-24T11:04:31;27.90;48.60
58638;DHT22;54976;51.510;7.522;2023-06-24T11:07:34;27.90;49.80
58638;DHT22;54976;51.510;7.522;2023-06-24T11:10:48;27.90;49.70
58638;DHT22;54976;51.510;7.522;2023-06-24T11:13:48;28.00;49.40
58638;DHT22;54976;51.510;7.522;2023-06-24T11:16:50;28.10;48.80
58638;DHT22;54976;51.510;7.522;2023-06-24T11:19:53;28.00;49.90
58638;DHT22;54976;51.510;7.522;2023-06-24T11:22:54;28.00;49.80
58638;DHT22;54976;51.510;7.522;2023-06-24T11:25:55;27.90;49.20
58638;DHT22;54976;51.510;7.522;2023-06-24T11:28:56;27.90;48.10
58638;DHT22;54976;51.510;7.522;2023-06-24T11:31:57;27.90;48.50
58638;DHT22;54976;51.510;7.522;2023-06-24T11:34:58;27.90;48.60
58638;DHT22;54976;51.510;7.522;2023-06-24T11:37:58;28.10;49.10
58638;DHT22;54976;51.510;7.522;2023-06-24T11:40:59;28.20;47.70
58638;DHT22;54976;51.510;7.522;2023-06-24T11:44:00;28.40;47.00
58638;DHT22;54976;51.510;7.522;2023-06-24T11:47:07;28.40;48.30
58638;DHT22;54976;51.510;7.522;2023-06-24T11:50:09;28.40;48.20
58638;DHT22;54976;51.510;7.522;2023-06-24T11:53:10;28.40;46.90
58638;DHT22;54976;51.510;7.522;2023-06-24T11:56:10;28.30;46.80
58638;DHT22;54976;51.510;7.522;2023-06-24T11:59:22;28.50;46.60
58638;DHT22;54976;51.510;7.522;2023-06-24T12:02:24;28.90;43.70
58638;DHT22;54976;51.510;7.522;2023-06-24T12:05:47;29.50;42.50
58638;DHT22;54976;51.510;7.522;2023-06-24T12:08:47;30.20;40.40
58638;DHT22;54976;51.510;7.522;2023-06-24T12:11:48;30.70;38.60
58638;DHT22;54976;51.510;7.522;2023-06-24T12:14:49;31.20;39.60
58638;DHT22;54976;51.510;7.522;2023-06-24T12:17:50;31.60;38.70
58638;DHT22;54976;51.510;7.522;2023-06-24T12:20:50;31.60;40.60
58638;DHT22;54976;51.510;7.522;2023-06-24T12:23:51;32.20;37.50
58638;DHT22;54976;51.510;7.522;2023-06-24T12:26:51;32.50;34.60
58638;DHT22;54976;51.510;7.522;2023-06-24T12:29:52;32.90;35.70
58638;DHT22;54976;51.510;7.522;2023-06-24T12:32:53;33.40;35.70
58638;DHT22;54976;51.510;7.522;2023-06-24T12:35:53;33.30;34.80
58638;DHT22;54976;51.510;7.522;2023-06-24T12:38:54;33.40;33.50
58638;DHT22;54976;51.510;7.522;2023-06-24T12:41:54;33.30;32.70
58638;DHT22;54976;51.510;7.522;2023-06-24T12:44:55;33.40;32.30
58638;DHT22;54976;51.510;7.522;2023-06-24T12:47:56;33.60;33.30
58638;DHT22;54976;51.510;7.522;2023-06-24T12:50:57;33.70;33.30
58638;DHT22;54976;51.510;7.522;2023-06-24T12:53:57;34.00;31.80
58638;DHT22;54976;51.510;7.522;2023-06-24T12:56:58;34.10;29.60
58638;DHT22;54976;51.510;7.522;2023-06-24T12:59:58;34.30;30.10
58638;DHT22;54976;51.510;7.522;2023-06-24T13:02:59;34.00;29.90
58638;DHT22;54976;51.510;7.522;2023-06-24T13:05:59;34.00;30.80
58638;DHT22;54976;51.510;7.522;2023-06-24T13:09:00;34.20;30.30
58638;DHT22;54976;51.510;7.522;2023-06-24T13:12:01;34.20;29.40
58638;DHT22;54976;51.510;7.522;2023-06-24T13:15:03;34.50;30.00
58638;DHT22;54976;51.510;7.522;2023-06-24T13:18:04;34.60;30.00
58638;DHT22;54976;51.510;7.522;2023-06-24T13:21:05;34.70;29.80
58638;DHT22;54976;51.510;7.522;2023-06-24T13:24:07;34.60;29.00
58638;DHT22;54976;51.510;7.522;2023-06-24T13:27:08;34.50;29.10
58638;DHT22;54976;51.510;7.522;2023-06-24T13:30:09;34.60;29.00
58638;DHT22;54976;51.510;7.522;2023-06-24T13:33:10;34.60;28.60
58638;DHT22;54976;51.510;7.522;2023-06-24T13:36:28;34.70;29.30
58638;DHT22;54976;51.510;7.522;2023-06-24T13:39:29;35.00;29.30
58638;DHT22;54976;51.510;7.522;2023-06-24T13:42:30;34.80;28.70
58638;DHT22;54976;51.510;7.522;2023-06-24T13:45:30;34.70;28.80
58638;DHT22;54976;51.510;7.522;2023-06-24T13:48:31;34.70;28.60
58638;DHT22;54976;51.510;7.522;2023-06-24T13:51:32;33.90;27.40
58638;DHT22;54976;51.510;7.522;2023-06-24T13:54:32;34.20;28.70
58638;DHT22;54976;51.510;7.522;2023-06-24T13:57:35;34.50;29.40
58638;DHT22;54976;51.510;7.522;2023-06-24T14:00:36;34.70;28.80
58638;DHT22;54976;51.510;7.522;2023-06-24T14:03:37;34.80;28.80
58638;DHT22;54976;51.510;7.522;2023-06-24T14:06:38;34.90;29.70
58638;DHT22;54976;51.510;7.522;2023-06-24T14:09:38;34.90;28.60
58638;DHT22;54976;51.510;7.522;2023-06-24T14:12:40;34.80;28.40
58638;DHT22;54976;51.510;7.522;2023-06-24T14:15:42;34.60;29.00
58638;DHT22;54976;51.510;7.522;2023-06-24T14:18:44;34.60;28.60
58638;DHT22;54976;51.510;7.522;2023-06-24T14:21:45;34.50;29.80
58638;DHT22;54976;51.510;7.522;2023-06-24T14:24:45;34.70;28.70
58638;DHT22;54976;51.510;7.522;2023-06-24T14:27:46;34.90;29.40
58638;DHT22;54976;51.510;7.522;2023-06-24T14:30:47;34.90;28.30
58638;DHT22;54976;51.510;7.522;2023-06-24T14:33:47;34.90;29.00
58638;DHT22;54976;51.510;7.522;2023-06-24T14:36:48;34.60;28.20
58638;DHT22;54976;51.510;7.522;2023-06-24T14:39:49;33.90;30.40
58638;DHT22;54976;51.510;7.522;2023-06-24T14:42:49;34.30;28.60
58638;DHT22;54976;51.510;7.522;2023-06-24T14:45:50;34.40;29.60
58638;DHT22;54976;51.510;7.522;2023-06-24T14:48:50;34.60;29.20
58638;DHT22;54976;51.510;7.522;2023-06-24T14:51:52;34.40;30.00
58638;DHT22;54976;51.510;7.522;2023-06-24T14:54:52;34.80;29.10
58638;DHT22;54976;51.510;7.522;2023-06-24T14:57:53;35.00;27.10
58638;DHT22;54976;51.510;7.522;2023-06-24T15:00:54;34.40;27.90
58638;DHT22;54976;51.510;7.522;2023-06-24T15:03:54;33.80;27.60
58638;DHT22;54976;51.510;7.522;2023-06-24T15:06:55;33.80;29.60
58638;DHT22;54976;51.510;7.522;2023-06-24T15:09:55;34.20;29.70
58638;DHT22;54976;51.510;7.522;2023-06-24T15:12:56;34.20;29.00
58638;DHT22;54976;51.510;7.522;2023-06-24T15:15:57;33.90;29.90
58638;DHT22;54976;51.510;7.522;2023-06-24T15:18:58;34.20;29.50
58638;DHT22;54976;51.510;7.522;2023-06-24T15:21:58;34.50;29.40
58638;DHT22;54976;51.510;7.522;2023-06-24T15:24:59;34.30;27.50
58638;DHT22;54976;51.510;7.522;2023-06-24T15:27:59;34.20;29.20
58638;DHT22;54976;51.510;7.522;2023-06-24T15:31:00;34.50;27.90
58638;DHT22;54976;51.510;7.522;2023-06-24T15:34:01;34.30;27.80
58638;DHT22;54976;51.510;7.522;2023-06-24T15:37:01;34.30;27.90
58638;DHT22;54976;51.510;7.522;2023-06-24T15:40:02;33.90;29.20
58638;DHT22;54976;51.510;7.522;2023-06-24T15:43:03;33.50;28.60
58638;DHT22;54976;51.510;7.522;2023-06-24T15:46:04;33.00;28.50
58638;DHT22;54976;51.510;7.522;2023-06-24T15:49:04;32.40;29.50
58638;DHT22;54976;51.510;7.522;2023-06-24T15:52:05;32.60;29.90
58638;DHT22;54976;51.510;7.522;2023-06-24T15:55:06;32.60;29.50
58638;DHT22;54976;51.510;7.522;2023-06-24T15:58:08;32.40;30.30
58638;DHT22;54976;51.510;7.522;2023-06-24T16:01:09;32.40;29.80
58638;DHT22;54976;51.510;7.522;2023-06-24T16:04:10;32.30;31.00
58638;DHT22;54976;51.510;7.522;2023-06-24T16:07:10;32.60;31.40
58638;DHT22;54976;51.510;7.522;2023-06-24T16:10:11;32.50;30.50
58638;DHT22;54976;51.510;7.522;2023-06-24T16:13:11;32.20;30.30
58638;DHT22;54976;51.510;7.522;2023-06-24T16:16:13;32.10;31.10
58638;DHT22;54976;51.510;7.522;2023-06-24T16:19:14;32.00;30.50
58638;DHT22;54976;51.510;7.522;2023-06-24T16:22:14;32.10;31.70
58638;DHT22;54976;51.510;7.522;2023-06-24T16:25:15;31.60;30.50
58638;DHT22;54976;51.510;7.522;2023-06-24T16:28:16;31.10;30.90
58638;DHT22;54976;51.510;7.522;2023-06-24T16:31:17;30.60;32.60
58638;DHT22;54976;51.510;7.522;2023-06-24T16:34:17;30.30;33.80
58638;DHT22;54976;51.510;7.522;2023-06-24T16:37:18;30.30;34.50
58638;DHT22;54976;51.510;7.522;2023-06-24T16:40:18;30.30;33.60
58638;DHT22;54976;51.510;7.522;2023-06-24T16:43:19;30.30;34.00
58638;DHT22;54976;51.510;7.522;2023-06-24T16:46:20;30.40;32.60
58638;DHT22;54976;51.510;7.522;2023-06-24T16:49:20;30.00;32.40
58638;DHT22;54976;51.510;7.522;2023-06-24T16:52:21;29.80;33.80
58638;DHT22;54976;51.510;7.522;2023-06-24T16:55:21;29.80;34.70
58638;DHT22;54976;51.510;7.522;2023-06-24T16:58:22;29.80;34.30
58638;DHT22;54976;51.510;7.522;2023-06-24T17:01:23;29.80;34.30
58638;DHT22;54976;51.510;7.522;2023-06-24T17:04:23;29.80;34.00
58638;DHT22;54976;51.510;7.522;2023-06-24T17:07:24;29.60;34.90
58638;DHT22;54976;51.510;7.522;2023-06-24T17:10:24;29.40;35.00
58638;DHT22;54976;51.510;7.522;2023-06-24T17:13:25;29.20;35.00
58638;DHT22;54976;51.510;7.522;2023-06-24T17:16:26;29.00;36.50
58638;DHT22;54976;51.510;7.522;2023-06-24T17:19:26;28.90;36.40
58638;DHT22;54976;51.510;7.522;2023-06-24T17:22:27;28.70;35.20
58638;DHT22;54976;51.510;7.522;2023-06-24T17:25:28;28.40;35.40
58638;DHT22;54976;51.510;7.522;2023-06-24T17:28:28;28.20;36.00
58638;DHT22;54976;51.510;7.522;2023-06-24T17:31:29;28.00;36.00
58638;DHT22;54976;51.510;7.522;2023-06-24T17:34:30;28.00;37.40
58638;DHT22;54976;51.510;7.522;2023-06-24T17:37:30;27.90;36.80
58638;DHT22;54976;51.510;7.522;2023-06-24T17:40:31;27.80;38.00
58638;DHT22;54976;51.510;7.522;2023-06-24T17:43:31;27.80;37.60
58638;DHT22;54976;51.510;7.522;2023-06-24T17:46:32;27.60;38.40
58638;DHT22;54976;51.510;7.522;2023-06-24T17:49:33;27.40;37.10
58638;DHT22;54976;51.510;7.522;2023-06-24T17:52:33;27.40;38.30
58638;DHT22;54976;51.510;7.522;2023-06-24T17:55:34;27.20;37.70
58638;DHT22;54976;51.510;7.522;2023-06-24T17:58:35;27.10;38.60
58638;DHT22;54976;51.510;7.522;2023-06-24T18:01:36;27.00;38.30
58638;DHT22;54976;51.510;7.522;2023-06-24T18:04:37;26.90;38.90
58638;DHT22;54976;51.510;7.522;2023-06-24T18:07:37;26.80;38.40
58638;DHT22;54976;51.510;7.522;2023-06-24T18:10:38;26.80;38.90
58638;DHT22;54976;51.510;7.522;2023-06-24T18:13:39;26.70;39.60
58638;DHT22;54976;51.510;7.522;2023-06-24T18:16:41;26.50;39.30
58638;DHT22;54976;51.510;7.522;2023-06-24T18:19:42;26.40;40.80
58638;DHT22;54976;51.510;7.522;2023-06-24T18:22:44;26.40;38.80
58638;DHT22;54976;51.510;7.522;2023-06-24T18:25:44;26.30;39.20
58638;DHT22;54976;51.510;7.522;2023-06-24T18:28:45;26.30;39.70
58638;DHT22;54976;51.510;7.522;2023-06-24T18:31:46;26.20;40.40
58638;DHT22;54976;51.510;7.522;2023-06-24T18:34:46;26.10;40.80
58638;DHT22;54976;51.510;7.522;2023-06-24T18:37:47;26.10;41.10
58638;DHT22;54976;51.510;7.522;2023-06-24T18:40:47;26.00;41.30
58638;DHT22;54976;51.510;7.522;2023-06-24T18:43:48;25.90;40.60
58638;DHT22;54976;51.510;7.522;2023-06-24T18:46:49;25.80;40.60
58638;DHT22;54976;51.510;7.522;2023-06-24T18:49:49;25.80;41.40
58638;DHT22;54976;51.510;7.522;2023-06-24T18:52:50;25.60;41.80
58638;DHT22;54976;51.510;7.522;2023-06-24T18:55:51;25.60;41.90
58638;DHT22;54976;51.510;7.522;2023-06-24T18:58:51;25.50;42.10
58638;DHT22;54976;51.510;7.522;2023-06-24T19:01:52;25.40;42.00
58638;DHT22;54976;51.510;7.522;2023-06-24T19:04:53;25.40;42.00
58638;DHT22;54976;51.510;7.522;2023-06-24T19:07:53;25.40;42.40
58638;DHT22;54976;51.510;7.522;2023-06-24T19:10:54;25.30;42.90
58638;DHT22;54976;51.510;7.522;2023-06-24T19:13:55;25.20;42.90
58638;DHT22;54976;51.510;7.522;2023-06-24T19:16:55;25.10;43.20